createdAt,value
2022-11-08T00:02:03.036Z,5.60
2022-11-08T00:04:30.034Z,5.20
2022-11-08T00:07:15.317Z,5.30
2022-11-08T00:10:00.158Z,5.13
2022-11-08T00:12:45.124Z,5.55
2022-11-08T00:15:11.756Z,4.97
2022-11-08T00:17:38.166Z,7.07
2022-11-08T00:20:05.476Z,5.80
2022-11-08T00:22:32.171Z,5.00
2022-11-08T00:24:58.819Z,5.80
2022-11-08T00:27:26.067Z,4.60
2022-11-08T00:29:52.780Z,4.97
2022-11-08T00:32:22.226Z,5.68
2022-11-08T00:34:48.672Z,6.70
2022-11-08T00:37:16.645Z,6.13
2022-11-08T00:39:43.059Z,4.50
2022-11-08T00:42:09.698Z,6.03
2022-11-08T00:44:36.153Z,5.30
2022-11-08T00:47:02.923Z,5.55
2022-11-08T00:49:29.810Z,5.40
2022-11-08T00:51:56.177Z,5.95
2022-11-08T00:54:22.805Z,4.43
2022-11-08T00:56:49.666Z,4.45
2022-11-08T00:59:18.594Z,5.88
2022-11-08T01:01:46.445Z,7.80
2022-11-08T01:04:15.498Z,4.97
2022-11-08T01:06:41.927Z,5.78
2022-11-08T01:09:08.367Z,5.85
2022-11-08T01:11:35.343Z,6.43
2022-11-08T01:14:02.355Z,4.97
2022-11-08T01:16:32.297Z,4.75
2022-11-08T01:19:01.307Z,5.22
2022-11-08T01:21:27.901Z,6.70
2022-11-08T01:23:54.886Z,5.35
2022-11-08T01:26:25.149Z,5.85
2022-11-08T01:28:51.742Z,5.22
2022-11-08T01:31:20.478Z,8.30
2022-11-08T01:33:51.372Z,7.45
2022-11-08T01:36:21.235Z,6.78
2022-11-08T01:38:48.323Z,6.80
2022-11-08T01:41:16.137Z,4.90
2022-11-08T01:43:48.425Z,6.30
2022-11-08T01:46:34.686Z,5.40
2022-11-08T01:49:21.109Z,4.60
2022-11-08T01:52:12.014Z,4.47
2022-11-08T01:54:50.674Z,5.25
2022-11-08T01:57:25.630Z,5.38
2022-11-08T01:59:55.229Z,6.38
2022-11-08T02:02:22.304Z,5.15
2022-11-08T02:04:48.908Z,6.22
2022-11-08T02:07:16.861Z,6.45
2022-11-08T02:09:46.187Z,5.60
2022-11-08T02:12:14.414Z,6.55
2022-11-08T02:14:41.331Z,5.53
2022-11-08T02:17:07.852Z,5.57
2022-11-08T02:19:39.520Z,6.72
2022-11-08T02:22:15.329Z,9.02
2022-11-08T02:24:42.076Z,6.13
2022-11-08T02:27:09.656Z,7.13
2022-11-08T02:29:36.345Z,7.05
2022-11-08T02:32:04.319Z,6.53
2022-11-08T02:34:35.055Z,8.98
2022-11-08T02:37:03.027Z,5.80
2022-11-08T02:39:29.987Z,5.35
2022-11-08T02:41:56.407Z,5.53
2022-11-08T02:44:22.775Z,6.07
2022-11-08T02:46:49.395Z,5.72
2022-11-08T02:49:15.892Z,7.20
2022-11-08T02:51:42.285Z,6.38
2022-11-08T02:54:08.668Z,7.72
2022-11-08T02:56:35.033Z,6.03
2022-11-08T02:59:01.480Z,6.70
2022-11-08T03:01:27.895Z,6.97
2022-11-08T03:03:54.307Z,6.97
2022-11-08T03:06:20.733Z,6.43
2022-11-08T03:08:47.066Z,5.25
2022-11-08T03:11:13.501Z,6.18
2022-11-08T03:13:39.832Z,5.63
2022-11-08T03:16:06.548Z,7.25
2022-11-08T03:18:33.337Z,5.93
2022-11-08T03:21:01.500Z,7.53
2022-11-08T03:23:28.481Z,7.18
2022-11-08T03:25:54.895Z,8.38
2022-11-08T03:28:23.037Z,5.28
2022-11-08T03:30:51.974Z,7.40
2022-11-08T03:33:18.699Z,5.57
2022-11-08T03:35:45.095Z,7.65
2022-11-08T03:38:11.443Z,9.18
2022-11-08T03:40:37.799Z,7.30
2022-11-08T03:43:04.166Z,8.30
2022-11-08T03:45:30.509Z,6.45
2022-11-08T03:47:56.854Z,6.03
2022-11-08T03:50:23.247Z,6.15
2022-11-08T03:52:52.243Z,9.13
2022-11-08T03:55:20.509Z,5.63
2022-11-08T03:57:48.404Z,5.45
2022-11-08T04:00:17.184Z,5.78
2022-11-08T04:02:44.756Z,7.30
2022-11-08T04:05:12.807Z,4.72
2022-11-08T04:07:39.656Z,8.20
2022-11-08T04:10:08.193Z,4.95
2022-11-08T04:12:56.750Z,7.82
2022-11-08T04:15:23.540Z,5.80
2022-11-08T04:18:10.785Z,6.22
2022-11-08T04:21:00.256Z,6.65
2022-11-08T04:23:28.060Z,9.20
2022-11-08T04:25:59.701Z,6.47
2022-11-08T04:28:28.466Z,6.32
2022-11-08T04:30:57.050Z,7.60
2022-11-08T04:33:24.221Z,8.23
2022-11-08T04:35:51.676Z,6.68
2022-11-08T04:38:19.219Z,6.15
2022-11-08T04:40:45.843Z,7.80
2022-11-08T04:43:12.524Z,7.20
2022-11-08T04:45:40.697Z,6.70
2022-11-08T04:48:07.748Z,8.02
2022-11-08T04:50:34.146Z,8.45
2022-11-08T04:53:01.197Z,8.38
2022-11-08T04:55:27.712Z,7.07
2022-11-08T04:57:57.281Z,7.80
2022-11-08T05:00:23.670Z,8.63
2022-11-08T05:02:50.174Z,9.95
2022-11-08T05:05:16.674Z,8.15
2022-11-08T05:07:43.048Z,8.88
2022-11-08T05:10:09.672Z,7.90
2022-11-08T05:12:36.022Z,10.00
2022-11-08T05:15:02.506Z,10.10
2022-11-08T05:17:28.918Z,9.25
2022-11-08T05:20:13.994Z,8.65
2022-11-08T05:22:58.947Z,8.70
2022-11-08T05:25:25.449Z,9.82
2022-11-08T05:27:51.803Z,7.95
2022-11-08T05:30:18.184Z,11.95
2022-11-08T05:32:44.625Z,10.30
2022-11-08T05:35:11.008Z,9.95
2022-11-08T05:37:41.130Z,10.88
2022-11-08T05:40:08.320Z,13.95
2022-11-08T05:42:34.670Z,9.07
2022-11-08T05:45:04.033Z,10.50
2022-11-08T05:47:34.667Z,10.27
2022-11-08T05:50:01.025Z,12.20
2022-11-08T05:52:27.425Z,11.20
2022-11-08T05:54:54.489Z,9.27
2022-11-08T05:57:22.290Z,11.07
2022-11-08T05:59:48.709Z,9.50
2022-11-08T06:02:16.894Z,11.88
2022-11-08T06:04:43.601Z,9.40
2022-11-08T06:07:10.017Z,13.88
2022-11-08T06:09:36.372Z,10.75
2022-11-08T06:12:02.805Z,13.63
2022-11-08T06:14:29.627Z,9.43
2022-11-08T06:16:56.070Z,9.25
2022-11-08T06:19:22.469Z,11.73
2022-11-08T06:21:48.863Z,9.95
2022-11-08T06:24:17.293Z,8.57
2022-11-08T06:26:44.312Z,7.82
2022-11-08T06:29:10.738Z,10.50
2022-11-08T06:31:41.823Z,7.90
2022-11-08T06:34:09.543Z,7.93
2022-11-08T06:36:36.050Z,11.48
2022-11-08T06:39:02.442Z,8.70
2022-11-08T06:41:29.911Z,9.13
2022-11-08T06:43:57.386Z,10.95
2022-11-08T06:46:24.356Z,7.65
2022-11-08T06:48:50.834Z,10.27
2022-11-08T06:51:17.506Z,9.02
2022-11-08T06:53:44.382Z,9.10
2022-11-08T06:56:11.104Z,8.57
2022-11-08T06:58:38.057Z,10.23
2022-11-08T07:01:06.476Z,9.07
2022-11-08T07:03:33.340Z,8.63
2022-11-08T07:06:06.923Z,10.65
2022-11-08T07:08:35.023Z,14.38
2022-11-08T07:11:02.668Z,14.20
2022-11-08T07:13:29.845Z,8.25
2022-11-08T07:15:59.990Z,10.52
2022-11-08T07:18:27.092Z,14.45
2022-11-08T07:20:57.478Z,9.07
2022-11-08T07:23:24.161Z,10.32
2022-11-08T07:25:50.814Z,9.30
2022-11-08T07:28:18.730Z,8.45
2022-11-08T07:30:46.275Z,9.18
2022-11-08T07:33:13.609Z,11.18
2022-11-08T07:35:40.552Z,10.15
2022-11-08T07:38:07.356Z,10.82
2022-11-08T07:40:35.091Z,9.50
2022-11-08T07:43:17.009Z,9.20
2022-11-08T07:45:43.923Z,7.85
2022-11-08T07:48:13.552Z,10.43
2022-11-08T07:50:41.767Z,8.25
2022-11-08T07:53:09.065Z,10.63
2022-11-08T07:55:37.245Z,11.13
2022-11-08T07:58:04.014Z,7.72
2022-11-08T08:00:31.632Z,8.77
2022-11-08T08:03:02.145Z,7.53
2022-11-08T08:05:32.595Z,6.32
2022-11-08T08:08:00.034Z,6.70
2022-11-08T08:10:27.992Z,8.00
2022-11-08T08:12:55.492Z,9.05
2022-11-08T08:15:22.024Z,8.40
2022-11-08T08:17:48.610Z,8.40
2022-11-08T08:20:15.112Z,6.75
2022-11-08T08:22:44.930Z,12.10
2022-11-08T08:25:11.700Z,8.65
2022-11-08T08:27:38.232Z,7.57
2022-11-08T08:30:05.880Z,9.10
2022-11-08T08:32:32.871Z,8.07
2022-11-08T08:34:59.277Z,9.70
2022-11-08T08:37:25.621Z,11.27
2022-11-08T08:39:51.982Z,10.85
2022-11-08T08:42:18.335Z,11.00
2022-11-08T08:44:44.732Z,12.00
2022-11-08T08:47:11.059Z,12.52
2022-11-08T08:49:37.619Z,12.48
2022-11-08T08:52:04.153Z,7.93
2022-11-08T08:54:30.634Z,8.13
2022-11-08T08:56:57.138Z,8.52
2022-11-08T09:02:11.650Z,10.00
2022-11-08T09:04:38.974Z,9.95
2022-11-08T09:07:06.365Z,8.57
2022-11-08T09:09:34.071Z,7.72
2022-11-08T09:12:00.536Z,9.00
2022-11-08T09:14:26.974Z,8.05
2022-11-08T09:16:53.375Z,10.93
2022-11-08T09:19:19.728Z,8.27
2022-11-08T09:21:46.136Z,9.07
2022-11-08T09:24:12.526Z,7.78
2022-11-08T09:26:38.881Z,7.05
2022-11-08T09:29:05.240Z,8.65
2022-11-08T09:31:31.667Z,8.90
2022-11-08T09:33:58.030Z,9.23
2022-11-08T09:36:24.488Z,7.55
2022-11-08T09:38:50.873Z,7.00
2022-11-08T09:41:17.229Z,7.00
2022-11-08T09:43:50.336Z,7.65
2022-11-08T09:48:52.171Z,10.10
2022-11-08T09:51:23.409Z,8.20
2022-11-08T09:53:56.119Z,8.60
2022-11-08T09:56:35.325Z,8.02
2022-11-08T09:59:26.574Z,8.20
2022-11-08T10:01:53.118Z,10.32
2022-11-08T10:04:23.622Z,13.32
2022-11-08T10:07:17.106Z,17.65
2022-11-08T10:10:08.455Z,18.60
2022-11-08T10:12:55.756Z,11.05
2022-11-08T10:15:44.057Z,15.18
2022-11-08T10:18:40.507Z,14.00
2022-11-08T10:21:37.939Z,11.98
2022-11-08T10:24:21.432Z,12.38
2022-11-08T10:26:50.689Z,10.88
2022-11-08T10:29:22.540Z,10.07
2022-11-08T10:31:56.633Z,9.02
2022-11-08T10:34:27.410Z,10.77
2022-11-08T10:37:00.203Z,8.75
2022-11-08T10:39:29.608Z,15.77
2022-11-08T10:42:06.699Z,8.18
2022-11-08T10:44:34.347Z,9.52
2022-11-08T10:47:05.465Z,10.20
2022-11-08T10:49:39.505Z,9.50
2022-11-08T10:52:11.948Z,10.02
2022-11-08T10:54:58.186Z,9.15
2022-11-08T10:57:27.564Z,6.97
2022-11-08T10:59:55.229Z,9.38
2022-11-08T11:02:32.236Z,10.90
2022-11-08T11:05:17.975Z,8.95
2022-11-08T11:07:46.787Z,10.95
2022-11-08T11:10:24.615Z,8.13
2022-11-08T11:13:11.344Z,8.00
2022-11-08T11:15:53.151Z,9.80
2022-11-08T11:18:30.369Z,6.10
2022-11-08T11:21:01.214Z,7.00
2022-11-08T11:23:38.543Z,8.85
2022-11-08T11:26:07.577Z,6.10
2022-11-08T11:28:36.073Z,5.93
2022-11-08T11:31:15.719Z,8.48
2022-11-08T11:33:46.563Z,8.95
2022-11-08T11:36:16.262Z,7.63
2022-11-08T11:38:57.942Z,10.27
2022-11-08T11:41:36.066Z,7.90
2022-11-08T11:44:20.553Z,9.05
2022-11-08T11:47:17.500Z,7.05
2022-11-08T11:49:45.252Z,6.22
2022-11-08T11:52:17.408Z,8.25
2022-11-08T11:54:46.779Z,6.40
2022-11-08T11:57:31.426Z,5.82
2022-11-08T12:00:00.855Z,7.40
2022-11-08T12:02:48.780Z,10.02
2022-11-08T12:05:43.608Z,8.25
2022-11-08T12:08:28.199Z,7.00
2022-11-08T12:10:59.696Z,6.05
2022-11-08T12:13:54.329Z,4.82
2022-11-08T12:16:59.366Z,7.57
2022-11-08T12:19:38.135Z,6.47
2022-11-08T12:22:18.257Z,7.80
2022-11-08T12:25:00.241Z,6.70
2022-11-08T12:27:35.537Z,5.88
2022-11-08T12:30:08.191Z,5.82
2022-11-08T12:33:14.344Z,7.40
2022-11-08T12:36:03.983Z,7.45
2022-11-08T12:38:42.429Z,7.40
2022-11-08T12:41:26.326Z,8.25
2022-11-08T12:44:04.828Z,5.85
2022-11-08T12:46:44.822Z,3.95
2022-11-08T12:49:26.780Z,4.32
2022-11-08T12:52:07.037Z,6.35
2022-11-08T12:54:39.790Z,4.30
2022-11-08T12:57:12.026Z,5.07
2022-11-08T12:59:42.675Z,6.95
2022-11-08T13:02:22.799Z,6.18
2022-11-08T13:04:58.110Z,8.55
2022-11-08T13:07:30.342Z,4.22
2022-11-08T13:10:04.982Z,4.07
2022-11-08T13:12:59.801Z,5.82
2022-11-08T13:15:26.373Z,4.22
2022-11-08T13:18:07.967Z,4.63
2022-11-08T13:20:43.416Z,4.85
2022-11-08T13:23:43.384Z,5.68
2022-11-08T13:26:24.844Z,5.70
2022-11-08T13:28:52.559Z,5.57
2022-11-08T13:31:37.000Z,6.35
2022-11-08T13:34:21.473Z,5.13
2022-11-08T13:37:09.002Z,4.63
2022-11-08T13:39:47.291Z,4.13
2022-11-08T13:42:16.737Z,4.43
2022-11-08T13:44:55.319Z,6.10
2022-11-08T13:47:34.081Z,4.47
2022-11-08T13:50:33.587Z,9.35
2022-11-08T13:53:24.189Z,4.28
2022-11-08T13:55:53.602Z,4.38
2022-11-08T13:58:42.634Z,5.28
2022-11-08T14:01:28.975Z,7.05
2022-11-08T14:03:59.773Z,4.50
2022-11-08T14:06:38.954Z,4.60
2022-11-08T14:09:33.421Z,5.03
2022-11-08T14:12:15.868Z,5.35
2022-11-08T14:15:00.972Z,3.50
2022-11-08T14:17:52.647Z,6.63
2022-11-08T14:20:33.097Z,4.32
2022-11-08T14:23:12.478Z,4.20
2022-11-08T14:25:40.087Z,4.22
2022-11-08T14:28:25.508Z,4.50
2022-11-08T14:30:52.590Z,3.63
2022-11-08T14:33:21.924Z,4.38
2022-11-08T14:35:58.890Z,4.20
2022-11-08T14:38:26.940Z,5.40
2022-11-08T14:40:57.882Z,6.93
2022-11-08T14:43:25.792Z,4.72
2022-11-08T14:45:53.447Z,6.57
2022-11-08T14:48:27.533Z,5.00
2022-11-08T14:50:59.971Z,6.00
2022-11-08T14:53:32.665Z,3.80
2022-11-08T14:56:14.468Z,5.10
2022-11-08T14:58:41.081Z,5.38
2022-11-08T15:01:09.771Z,4.05
2022-11-08T15:03:36.984Z,4.97
2022-11-08T15:06:11.132Z,12.07
2022-11-08T15:08:52.801Z,10.27
2022-11-08T15:11:31.902Z,14.80
2022-11-08T15:14:03.122Z,14.00
2022-11-08T15:16:44.457Z,20.33
2022-11-08T15:19:32.180Z,27.88
2022-11-08T15:22:00.368Z,26.35
2022-11-08T15:24:38.603Z,15.57
2022-11-08T15:27:14.336Z,10.20
2022-11-08T15:30:01.571Z,8.18
2022-11-08T15:32:36.455Z,6.97
2022-11-08T15:35:04.260Z,7.50
2022-11-08T15:37:33.588Z,5.57
2022-11-08T15:40:16.764Z,4.80
2022-11-08T15:42:44.984Z,4.68
2022-11-08T15:45:14.146Z,4.75
2022-11-08T15:47:46.690Z,4.85
2022-11-08T15:50:22.179Z,5.13
2022-11-08T15:52:53.689Z,4.22
2022-11-08T15:55:23.945Z,5.13
2022-11-08T15:57:51.131Z,3.92
2022-11-08T16:00:23.960Z,4.60
2022-11-08T16:02:50.897Z,4.90
2022-11-08T16:05:20.036Z,4.70
2022-11-08T16:07:46.794Z,6.00
2022-11-08T16:10:15.546Z,6.82
2022-11-08T16:12:44.742Z,5.45
2022-11-08T16:15:17.388Z,5.15
2022-11-08T16:17:44.128Z,7.82
2022-11-08T16:20:23.345Z,6.82
2022-11-08T16:22:49.753Z,17.92
2022-11-08T16:25:16.104Z,8.60
2022-11-08T16:27:42.584Z,9.20
2022-11-08T16:30:14.439Z,9.85
2022-11-08T16:32:41.565Z,11.40
2022-11-08T16:35:10.244Z,7.93
2022-11-08T16:37:38.135Z,8.23
2022-11-08T16:40:15.248Z,8.43
2022-11-08T16:42:41.736Z,8.35
2022-11-08T16:45:09.036Z,6.60
2022-11-08T16:47:35.997Z,7.50
2022-11-08T16:50:02.728Z,12.15
2022-11-08T16:52:29.143Z,9.73
2022-11-08T16:54:55.582Z,8.98
2022-11-08T16:57:34.084Z,13.02
2022-11-08T17:00:01.741Z,11.70
2022-11-08T17:02:33.405Z,11.93
2022-11-08T17:04:59.881Z,12.70
2022-11-08T17:07:27.785Z,13.27
2022-11-08T17:09:54.306Z,10.23
2022-11-08T17:12:21.328Z,7.20
2022-11-08T17:14:47.734Z,8.32
2022-11-08T17:17:15.265Z,7.80
2022-11-08T17:19:41.739Z,7.90
2022-11-08T17:22:08.169Z,7.60
2022-11-08T17:24:34.589Z,7.68
2022-11-08T17:27:01.112Z,8.30
2022-11-08T17:29:27.750Z,8.45
2022-11-08T17:31:54.080Z,8.70
2022-11-08T17:34:20.509Z,19.00
2022-11-08T17:36:46.865Z,20.05
2022-11-08T17:39:14.025Z,10.57
2022-11-08T17:41:40.540Z,13.38
2022-11-08T17:44:07.073Z,11.05
2022-11-08T17:46:33.419Z,9.18
2022-11-08T17:48:59.852Z,8.38
2022-11-08T17:51:26.401Z,7.07
2022-11-08T17:53:52.797Z,8.30
2022-11-08T17:56:19.613Z,7.25
2022-11-08T17:58:46.063Z,7.22
2022-11-08T18:01:12.961Z,8.50
2022-11-08T18:03:39.426Z,8.70
2022-11-08T18:06:11.265Z,8.60
2022-11-08T18:08:38.021Z,9.82
2022-11-08T18:11:04.622Z,13.52
2022-11-08T18:13:31.748Z,8.43
2022-11-08T18:16:10.240Z,7.60
2022-11-08T18:18:37.221Z,10.43
2022-11-08T18:21:04.827Z,6.25
2022-11-08T18:23:31.333Z,5.70
2022-11-08T18:25:57.738Z,8.27
2022-11-08T18:28:24.581Z,9.13
2022-11-08T18:30:51.282Z,9.63
2022-11-08T18:33:20.548Z,9.15
2022-11-08T18:35:47.176Z,9.93
2022-11-08T18:38:14.277Z,9.60
2022-11-08T18:40:44.415Z,10.15
2022-11-08T18:43:10.956Z,11.23
2022-11-08T18:45:37.824Z,10.63
2022-11-08T18:48:04.403Z,14.73
2022-11-08T18:50:30.777Z,17.70
2022-11-08T18:53:02.288Z,17.75
2022-11-08T18:55:31.258Z,13.13
2022-11-08T18:57:57.737Z,11.80
2022-11-08T19:00:24.119Z,10.82
2022-11-08T19:02:50.559Z,12.15
2022-11-08T19:05:17.563Z,13.77
2022-11-08T19:07:43.941Z,12.48
2022-11-08T19:10:10.546Z,14.02
2022-11-08T19:12:36.934Z,25.98
2022-11-08T19:15:03.585Z,21.08
2022-11-08T19:17:31.777Z,20.95
2022-11-08T19:19:58.229Z,24.00
2022-11-08T19:22:24.585Z,18.85
2022-11-08T19:24:51.061Z,17.55
2022-11-08T19:27:17.470Z,17.70
2022-11-08T19:29:43.932Z,16.33
2022-11-08T19:32:10.321Z,11.18
2022-11-08T19:34:36.818Z,6.47
2022-11-08T19:37:03.489Z,8.55
2022-11-08T19:39:30.271Z,5.13
2022-11-08T19:41:56.678Z,6.20
2022-11-08T19:44:23.111Z,7.55
2022-11-08T19:46:49.579Z,6.55
2022-11-08T19:49:16.007Z,7.88
2022-11-08T19:51:42.452Z,6.28
2022-11-08T19:54:12.865Z,4.80
2022-11-08T19:59:25.678Z,5.03
2022-11-08T20:01:52.206Z,5.30
2022-11-08T20:04:19.216Z,5.00
2022-11-08T20:06:48.831Z,5.88
2022-11-08T20:09:15.301Z,4.45
2022-11-08T20:11:42.320Z,6.07
2022-11-08T20:14:14.010Z,4.78
2022-11-08T20:16:42.734Z,8.05
2022-11-08T20:19:13.907Z,7.38
2022-11-08T20:21:42.377Z,6.85
2022-11-08T20:24:10.247Z,5.82
2022-11-08T20:26:38.305Z,6.05
2022-11-08T20:29:06.095Z,6.90
2022-11-08T20:31:32.819Z,7.03
2022-11-08T20:33:59.778Z,6.72
2022-11-08T20:36:34.567Z,6.90
2022-11-08T20:39:05.643Z,7.57
2022-11-08T20:41:35.556Z,5.57
2022-11-08T20:44:02.202Z,6.35
2022-11-08T20:46:29.468Z,7.38
2022-11-08T20:49:00.228Z,9.70
2022-11-08T20:51:27.927Z,9.20
2022-11-08T20:53:55.807Z,7.47
2022-11-08T20:56:23.417Z,9.20
2022-11-08T20:58:51.319Z,11.98
2022-11-08T21:01:20.805Z,11.40
2022-11-08T21:03:48.080Z,11.00
2022-11-08T21:06:17.205Z,13.18
2022-11-08T21:09:07.020Z,10.90
2022-11-08T21:11:34.193Z,11.73
2022-11-08T21:14:01.088Z,8.73
2022-11-08T21:16:30.278Z,10.70
2022-11-08T21:18:59.083Z,8.48
2022-11-08T21:21:26.373Z,7.63
2022-11-08T21:23:54.161Z,6.30
2022-11-08T21:26:21.072Z,5.57
2022-11-08T21:28:48.005Z,8.80
2022-11-08T21:31:14.978Z,6.93
2022-11-08T21:33:41.516Z,5.95
2022-11-08T21:36:09.078Z,5.20
2022-11-08T21:38:38.232Z,5.13
2022-11-08T21:41:06.854Z,6.03
2022-11-08T21:43:38.114Z,6.22
2022-11-08T21:46:18.439Z,5.47
2022-11-08T21:48:45.826Z,6.03
2022-11-08T21:51:12.861Z,7.15
2022-11-08T21:53:49.337Z,5.10
2022-11-08T21:56:21.563Z,6.90
2022-11-08T21:58:48.178Z,6.32
2022-11-08T22:01:14.739Z,7.43
2022-11-08T22:03:41.153Z,6.35
2022-11-08T22:06:08.063Z,5.95
2022-11-08T22:08:34.429Z,5.35
2022-11-08T22:11:00.823Z,6.78
2022-11-08T22:13:27.339Z,5.65
2022-11-08T22:15:53.792Z,5.40
2022-11-08T22:18:36.865Z,5.10
2022-11-08T22:21:25.380Z,5.82
2022-11-08T22:23:51.785Z,5.63
2022-11-08T22:26:18.171Z,6.22
2022-11-08T22:28:44.572Z,5.63
2022-11-08T22:31:11.004Z,6.40
2022-11-08T22:33:37.392Z,7.13
2022-11-08T22:36:04.368Z,6.30
2022-11-08T22:38:30.779Z,6.78
2022-11-08T22:40:57.211Z,7.57
2022-11-08T22:43:23.696Z,8.43
2022-11-08T22:45:50.033Z,6.85
2022-11-08T22:48:17.094Z,7.15
2022-11-08T22:50:43.694Z,8.10
2022-11-08T22:53:10.097Z,12.02
2022-11-08T22:55:36.462Z,10.38
2022-11-08T22:58:02.888Z,9.40
2022-11-08T23:00:29.926Z,9.77
2022-11-08T23:02:56.772Z,9.73
2022-11-08T23:05:23.453Z,8.60
2022-11-08T23:07:49.861Z,9.13
2022-11-08T23:10:16.316Z,9.32
2022-11-08T23:13:01.360Z,8.60
2022-11-08T23:15:46.265Z,8.15
2022-11-08T23:18:12.673Z,9.23
2022-11-08T23:20:57.762Z,8.73
2022-11-08T23:23:42.557Z,8.77
2022-11-08T23:26:08.953Z,7.13
2022-11-08T23:28:53.748Z,6.70
2022-11-08T23:31:35.019Z,8.27
2022-11-08T23:34:02.640Z,8.65
2022-11-08T23:36:29.034Z,7.10
2022-11-08T23:38:56.328Z,6.95
2022-11-08T23:41:42.240Z,7.80
2022-11-08T23:44:24.451Z,8.50
2022-11-08T23:46:56.836Z,7.07
2022-11-08T23:49:23.427Z,7.13
2022-11-08T23:51:50.506Z,5.97
2022-11-08T23:54:17.350Z,8.63
2022-11-08T23:56:44.535Z,6.72
2022-11-08T23:59:12.282Z,6.85
